createdAt,value
2023-09-06T00:02:33.994Z,19.21
2023-09-06T00:05:19.548Z,19.19
2023-09-06T00:08:04.926Z,19.16
2023-09-06T00:10:50.567Z,19.14
2023-09-06T00:13:36.880Z,19.13
2023-09-06T00:16:22.341Z,19.11
2023-09-06T00:19:07.733Z,19.07
2023-09-06T00:21:53.070Z,19.04
2023-09-06T00:24:38.437Z,19.03
2023-09-06T00:27:23.899Z,19.02
2023-09-06T00:30:09.700Z,18.96
2023-09-06T00:32:55.155Z,18.93
2023-09-06T00:35:41.846Z,18.89
2023-09-06T00:38:27.688Z,18.86
2023-09-06T00:41:13.084Z,18.84
2023-09-06T00:43:58.583Z,18.82
2023-09-06T00:46:43.916Z,18.80
2023-09-06T00:49:29.281Z,18.76
2023-09-06T00:52:17.644Z,18.75
2023-09-06T00:55:04.069Z,18.73
2023-09-06T00:57:50.038Z,18.71
2023-09-06T01:00:36.762Z,18.70
2023-09-06T01:03:23.114Z,18.67
2023-09-06T01:06:13.267Z,18.65
2023-09-06T01:09:00.188Z,18.60
2023-09-06T01:11:47.084Z,18.57
2023-09-06T01:14:33.901Z,18.53
2023-09-06T01:17:20.464Z,18.49
2023-09-06T01:20:19.342Z,18.49
2023-09-06T01:23:32.090Z,18.43
2023-09-06T01:26:18.052Z,18.41
2023-09-06T01:29:04.625Z,18.41
2023-09-06T01:31:50.335Z,18.36
2023-09-06T01:34:35.966Z,18.32
2023-09-06T01:37:22.589Z,18.28
2023-09-06T01:40:21.323Z,18.28
2023-09-06T01:43:06.880Z,18.26
2023-09-06T01:45:53.168Z,18.25
2023-09-06T01:48:40.715Z,18.24
2023-09-06T01:51:26.965Z,18.22
2023-09-06T01:54:12.389Z,18.21
2023-09-06T01:56:57.595Z,18.19
2023-09-06T01:59:43.089Z,18.17
2023-09-06T02:02:28.678Z,18.18
2023-09-06T02:05:14.137Z,18.19
2023-09-06T02:07:59.932Z,18.16
2023-09-06T02:10:46.752Z,18.15
2023-09-06T02:13:32.290Z,18.13
2023-09-06T02:16:18.750Z,18.12
2023-09-06T02:19:04.379Z,18.11
2023-09-06T02:21:49.829Z,18.09
2023-09-06T02:24:35.115Z,18.05
2023-09-06T02:27:20.389Z,18.01
2023-09-06T02:30:07.948Z,18.00
2023-09-06T02:32:56.419Z,17.97
2023-09-06T02:35:42.574Z,17.97
2023-09-06T02:38:28.262Z,17.94
2023-09-06T02:41:13.733Z,17.93
2023-09-06T02:43:59.385Z,17.91
2023-09-06T02:46:46.002Z,17.88
2023-09-06T02:49:31.115Z,17.86
2023-09-06T02:52:29.334Z,17.80
2023-09-06T02:55:15.468Z,17.75
2023-09-06T02:58:01.037Z,17.70
2023-09-06T03:00:48.431Z,17.64
2023-09-06T03:03:34.686Z,17.60
2023-09-06T03:06:21.058Z,17.61
2023-09-06T03:09:07.950Z,17.59
2023-09-06T03:11:54.760Z,17.56
2023-09-06T03:14:44.772Z,17.57
2023-09-06T03:17:31.374Z,17.55
2023-09-06T03:20:21.931Z,17.55
2023-09-06T03:23:20.305Z,17.53
2023-09-06T03:26:12.308Z,17.51
2023-09-06T03:28:59.033Z,17.47
2023-09-06T03:31:44.272Z,17.47
2023-09-06T03:34:29.706Z,17.47
2023-09-06T03:37:19.756Z,17.46
2023-09-06T03:40:25.762Z,17.44
2023-09-06T03:43:20.801Z,17.41
2023-09-06T03:46:10.532Z,17.37
2023-09-06T03:48:56.032Z,17.37
2023-09-06T03:51:41.370Z,17.34
2023-09-06T03:54:26.731Z,17.29
2023-09-06T03:57:14.129Z,17.27
2023-09-06T04:00:00.436Z,17.27
2023-09-06T04:02:46.944Z,17.27
2023-09-06T04:05:33.511Z,17.26
2023-09-06T04:08:21.267Z,17.23
2023-09-06T04:11:14.739Z,17.20
2023-09-06T04:14:02.449Z,17.19
2023-09-06T04:16:47.944Z,17.18
2023-09-06T04:19:35.027Z,17.18
2023-09-06T04:22:21.040Z,17.19
2023-09-06T04:25:07.429Z,17.18
2023-09-06T04:27:55.730Z,17.15
2023-09-06T04:30:43.747Z,17.15
2023-09-06T04:33:32.044Z,17.10
2023-09-06T04:36:24.567Z,17.08
2023-09-06T04:39:18.308Z,17.07
2023-09-06T04:42:03.571Z,17.08
2023-09-06T04:44:49.532Z,17.10
2023-09-06T04:47:40.920Z,17.11
2023-09-06T04:50:26.227Z,17.15
2023-09-06T04:53:12.868Z,17.16
2023-09-06T04:56:00.074Z,17.17
2023-09-06T04:58:54.546Z,17.22
2023-09-06T05:01:39.882Z,17.25
2023-09-06T05:04:25.259Z,17.28
2023-09-06T05:07:11.907Z,17.33
2023-09-06T05:09:58.503Z,17.40
2023-09-06T05:12:44.920Z,17.44
2023-09-06T05:15:30.588Z,17.45
2023-09-06T05:18:16.498Z,17.49
2023-09-06T05:21:06.134Z,17.51
2023-09-06T05:23:53.595Z,17.52
2023-09-06T05:26:40.000Z,17.56
2023-09-06T05:29:28.283Z,17.60
2023-09-06T05:32:19.720Z,17.64
2023-09-06T05:35:07.098Z,17.70
2023-09-06T05:37:53.999Z,17.77
2023-09-06T05:40:44.638Z,17.83
2023-09-06T05:43:41.965Z,17.91
2023-09-06T05:46:33.504Z,18.00
2023-09-06T05:49:29.892Z,18.05
2023-09-06T05:52:15.727Z,18.10
2023-09-06T05:55:02.369Z,18.16
2023-09-06T05:57:47.566Z,18.21
2023-09-06T06:00:36.936Z,18.26
2023-09-06T06:03:25.112Z,18.34
2023-09-06T06:06:15.015Z,18.45
2023-09-06T06:09:00.581Z,18.57
2023-09-06T06:11:46.106Z,18.68
2023-09-06T06:14:31.655Z,18.76
2023-09-06T06:17:17.172Z,18.84
2023-09-06T06:20:04.862Z,18.92
2023-09-06T06:22:49.995Z,19.03
2023-09-06T06:25:36.950Z,19.15
2023-09-06T06:28:22.658Z,19.19
2023-09-06T06:31:08.210Z,19.24
2023-09-06T06:33:54.567Z,19.33
2023-09-06T06:36:39.827Z,19.46
2023-09-06T06:39:25.274Z,19.57
2023-09-06T06:42:10.653Z,19.67
2023-09-06T06:45:04.558Z,19.77
2023-09-06T06:47:50.422Z,19.87
2023-09-06T06:50:35.866Z,19.98
2023-09-06T06:53:21.083Z,20.08
2023-09-06T06:56:07.670Z,20.12
2023-09-06T07:01:38.528Z,20.17
2023-09-06T07:04:24.009Z,20.23
2023-09-06T07:07:09.707Z,20.33
2023-09-06T07:09:55.284Z,20.45
2023-09-06T07:12:40.688Z,20.59
2023-09-06T07:15:26.049Z,20.70
2023-09-06T07:18:13.999Z,20.76
2023-09-06T07:20:59.431Z,20.87
2023-09-06T07:23:45.022Z,20.95
2023-09-06T07:26:30.523Z,21.05
2023-09-06T07:29:15.761Z,21.20
2023-09-06T07:32:01.109Z,21.35
2023-09-06T07:34:46.464Z,21.46
2023-09-06T07:37:32.689Z,21.50
2023-09-06T07:40:18.617Z,21.57
2023-09-06T07:43:04.709Z,21.60
2023-09-06T07:45:50.232Z,21.59
2023-09-06T07:48:37.602Z,21.66
2023-09-06T07:51:24.704Z,21.76
2023-09-06T07:54:11.835Z,21.90
2023-09-06T07:56:57.462Z,22.01
2023-09-06T07:59:42.927Z,22.14
2023-09-06T08:02:28.174Z,22.17
2023-09-06T08:05:13.338Z,22.17
2023-09-06T08:07:59.530Z,22.23
2023-09-06T08:10:46.012Z,22.32
2023-09-06T08:13:31.506Z,22.45
2023-09-06T08:16:17.702Z,22.63
2023-09-06T08:19:02.913Z,22.73
2023-09-06T08:21:49.015Z,22.90
2023-09-06T08:24:34.710Z,23.02
2023-09-06T08:27:19.958Z,23.15
2023-09-06T08:30:11.964Z,23.13
2023-09-06T08:32:57.436Z,23.16
2023-09-06T08:35:43.106Z,23.22
2023-09-06T08:38:28.862Z,23.19
2023-09-06T08:41:15.164Z,23.30
2023-09-06T08:44:04.960Z,23.34
2023-09-06T08:46:54.079Z,23.35
2023-09-06T08:49:40.113Z,23.38
2023-09-06T08:52:25.857Z,23.42
2023-09-06T08:55:12.251Z,23.47
2023-09-06T08:57:58.507Z,23.60
2023-09-06T09:00:44.117Z,23.72
2023-09-06T09:03:29.488Z,23.93
2023-09-06T09:06:15.319Z,23.98
2023-09-06T09:09:15.318Z,24.05
2023-09-06T09:12:00.717Z,24.16
2023-09-06T09:14:46.543Z,24.13
2023-09-06T09:17:36.208Z,24.29
2023-09-06T09:20:28.431Z,24.47
2023-09-06T09:23:25.555Z,24.60
2023-09-06T09:26:11.006Z,24.75
2023-09-06T09:28:56.440Z,24.81
2023-09-06T09:31:41.871Z,24.72
2023-09-06T09:34:27.197Z,24.74
2023-09-06T09:37:12.546Z,24.68
2023-09-06T09:39:57.934Z,24.60
2023-09-06T09:42:56.027Z,24.63
2023-09-06T09:45:45.081Z,24.77
2023-09-06T09:48:31.879Z,24.86
2023-09-06T09:51:17.731Z,24.91
2023-09-06T09:54:05.076Z,24.95
2023-09-06T09:57:05.718Z,25.05
2023-09-06T09:59:54.078Z,24.98
2023-09-06T10:02:41.298Z,24.95
2023-09-06T10:05:30.694Z,25.11
2023-09-06T10:08:17.354Z,25.27
2023-09-06T10:11:09.809Z,25.36
2023-09-06T10:13:57.432Z,25.43
2023-09-06T10:16:43.075Z,25.38
2023-09-06T10:19:32.838Z,25.51
2023-09-06T10:22:23.082Z,25.55
2023-09-06T10:25:11.184Z,25.68
2023-09-06T10:27:57.840Z,25.81
2023-09-06T10:30:51.757Z,25.83
2023-09-06T10:33:37.036Z,25.68
2023-09-06T10:36:28.443Z,25.82
2023-09-06T10:39:15.779Z,25.80
2023-09-06T10:42:12.371Z,25.79
2023-09-06T10:45:00.035Z,25.82
2023-09-06T10:47:46.373Z,25.85
2023-09-06T10:50:31.571Z,25.82
2023-09-06T10:53:20.347Z,25.92
2023-09-06T10:56:06.882Z,25.91
2023-09-06T10:58:56.640Z,25.88
2023-09-06T11:02:12.772Z,25.95
2023-09-06T11:05:06.784Z,26.03
2023-09-06T11:07:52.390Z,26.12
2023-09-06T11:10:37.777Z,26.12
2023-09-06T11:13:30.260Z,26.10
2023-09-06T11:16:17.115Z,26.21
2023-09-06T11:19:02.582Z,26.28
2023-09-06T11:21:48.070Z,26.36
2023-09-06T11:24:37.399Z,26.32
2023-09-06T11:27:23.361Z,26.30
2023-09-06T11:30:12.211Z,26.27
2023-09-06T11:32:57.854Z,26.31
2023-09-06T11:35:57.830Z,26.38
2023-09-06T11:38:44.833Z,26.45
2023-09-06T11:41:30.141Z,26.54
2023-09-06T11:44:18.722Z,26.53
2023-09-06T11:47:07.805Z,26.52
2023-09-06T11:49:56.433Z,26.57
2023-09-06T11:52:57.159Z,26.50
2023-09-06T11:55:47.008Z,26.43
2023-09-06T11:58:33.488Z,26.33
2023-09-06T12:01:25.474Z,26.45
2023-09-06T12:04:17.706Z,26.62
2023-09-06T12:07:08.293Z,26.52
2023-09-06T12:09:57.040Z,26.55
2023-09-06T12:12:43.899Z,26.66
2023-09-06T12:15:29.439Z,26.55
2023-09-06T12:18:15.217Z,26.62
2023-09-06T12:21:01.221Z,26.68
2023-09-06T12:23:47.162Z,26.73
2023-09-06T12:26:34.039Z,26.64
2023-09-06T12:29:19.398Z,26.65
2023-09-06T12:32:05.961Z,26.57
2023-09-06T12:34:51.418Z,26.67
2023-09-06T12:37:41.156Z,26.77
2023-09-06T12:40:29.091Z,26.88
2023-09-06T12:43:15.617Z,26.91
2023-09-06T12:46:02.122Z,26.99
2023-09-06T12:48:48.227Z,27.01
2023-09-06T12:51:33.679Z,26.99
2023-09-06T12:54:19.060Z,26.95
2023-09-06T12:57:04.887Z,26.97
2023-09-06T12:59:50.307Z,26.98
2023-09-06T13:02:35.821Z,26.98
2023-09-06T13:05:22.019Z,26.98
2023-09-06T13:08:08.017Z,26.93
2023-09-06T13:10:53.349Z,26.96
2023-09-06T13:13:38.645Z,26.96
2023-09-06T13:16:24.314Z,26.95
2023-09-06T13:19:11.657Z,26.98
2023-09-06T13:21:58.193Z,26.98
2023-09-06T13:24:43.648Z,27.00
2023-09-06T13:27:28.721Z,27.03
2023-09-06T13:30:15.213Z,27.02
2023-09-06T13:33:00.307Z,27.05
2023-09-06T13:35:45.700Z,27.03
2023-09-06T13:38:31.643Z,27.02
2023-09-06T13:41:16.953Z,27.03
2023-09-06T13:44:02.351Z,27.07
2023-09-06T13:46:51.116Z,27.02
2023-09-06T13:49:37.013Z,27.08
2023-09-06T13:52:22.260Z,27.14
2023-09-06T13:55:08.079Z,27.12
2023-09-06T13:57:53.661Z,27.12
2023-09-06T14:00:38.941Z,27.15
2023-09-06T14:03:25.192Z,27.10
2023-09-06T14:06:10.957Z,27.11
2023-09-06T14:08:56.136Z,27.06
2023-09-06T14:11:42.024Z,27.06
2023-09-06T14:14:28.174Z,27.08
2023-09-06T14:17:13.347Z,27.09
2023-09-06T14:19:59.694Z,27.08
2023-09-06T14:22:44.922Z,27.09
2023-09-06T14:25:30.270Z,27.05
2023-09-06T14:28:15.850Z,27.04
2023-09-06T14:31:01.873Z,27.08
2023-09-06T14:33:47.114Z,27.11
2023-09-06T14:36:32.384Z,27.11
2023-09-06T14:39:19.318Z,27.11
2023-09-06T14:42:05.845Z,27.05
2023-09-06T14:44:51.265Z,27.05
2023-09-06T14:47:36.645Z,27.02
2023-09-06T14:50:22.210Z,27.08
2023-09-06T14:53:07.712Z,27.12
2023-09-06T14:55:53.172Z,27.10
2023-09-06T14:58:38.482Z,27.10
2023-09-06T15:01:23.982Z,27.07
2023-09-06T15:04:09.445Z,27.08
2023-09-06T15:06:59.626Z,27.07
2023-09-06T15:09:45.549Z,27.08
2023-09-06T15:12:31.448Z,27.09
2023-09-06T15:15:16.852Z,27.10
2023-09-06T15:18:02.470Z,27.05
2023-09-06T15:20:48.012Z,26.99
2023-09-06T15:23:33.918Z,26.96
2023-09-06T15:26:19.431Z,26.90
2023-09-06T15:29:05.159Z,26.93
2023-09-06T15:31:50.443Z,26.96
2023-09-06T15:34:37.533Z,27.01
2023-09-06T15:37:22.938Z,27.03
2023-09-06T15:40:09.821Z,27.05
2023-09-06T15:42:55.232Z,27.03
2023-09-06T15:45:40.939Z,26.99
2023-09-06T15:48:26.400Z,26.93
2023-09-06T15:51:11.986Z,26.91
2023-09-06T15:53:57.463Z,26.89
2023-09-06T15:56:45.938Z,26.88
2023-09-06T15:59:31.650Z,26.89
2023-09-06T16:02:17.630Z,26.83
2023-09-06T16:05:03.296Z,26.82
2023-09-06T16:07:48.813Z,26.76
2023-09-06T16:10:34.265Z,26.75
2023-09-06T16:13:20.356Z,26.70
2023-09-06T16:16:07.483Z,26.67
2023-09-06T16:18:53.913Z,26.61
2023-09-06T16:21:39.186Z,26.61
2023-09-06T16:24:24.900Z,26.59
2023-09-06T16:27:10.251Z,26.55
2023-09-06T16:29:55.977Z,26.51
2023-09-06T16:32:41.596Z,26.48
2023-09-06T16:35:28.047Z,26.42
2023-09-06T16:38:13.854Z,26.40
2023-09-06T16:40:59.481Z,26.39
2023-09-06T16:43:44.945Z,26.33
2023-09-06T16:46:30.277Z,26.27
2023-09-06T16:49:16.008Z,26.21
2023-09-06T16:52:01.488Z,26.15
2023-09-06T16:54:46.694Z,26.12
2023-09-06T16:57:32.304Z,26.09
2023-09-06T17:00:17.826Z,26.02
2023-09-06T17:03:03.644Z,25.99
2023-09-06T17:05:49.098Z,25.95
2023-09-06T17:08:34.687Z,25.93
2023-09-06T17:12:03.943Z,25.88
2023-09-06T17:14:50.161Z,25.82
2023-09-06T17:17:35.858Z,25.78
2023-09-06T17:20:26.628Z,25.70
2023-09-06T17:23:12.101Z,25.67
2023-09-06T17:25:57.681Z,25.62
2023-09-06T17:28:48.355Z,25.57
2023-09-06T17:31:35.378Z,25.53
2023-09-06T17:34:21.071Z,25.50
2023-09-06T17:37:07.772Z,25.44
2023-09-06T17:39:53.773Z,25.38
2023-09-06T17:42:39.377Z,25.34
2023-09-06T17:45:25.100Z,25.28
2023-09-06T17:48:11.495Z,25.23
2023-09-06T17:50:58.968Z,25.16
2023-09-06T17:53:44.705Z,25.07
2023-09-06T17:56:30.386Z,25.00
2023-09-06T17:59:17.296Z,24.90
2023-09-06T18:02:05.782Z,24.81
2023-09-06T18:04:51.227Z,24.73
2023-09-06T18:07:37.042Z,24.67
2023-09-06T18:10:22.544Z,24.62
2023-09-06T18:13:11.921Z,24.59
2023-09-06T18:15:57.833Z,24.57
2023-09-06T18:18:45.027Z,24.57
2023-09-06T18:21:30.419Z,24.53
2023-09-06T18:24:15.967Z,24.47
2023-09-06T18:27:07.986Z,24.41
2023-09-06T18:29:55.961Z,24.36
2023-09-06T18:32:43.067Z,24.34
2023-09-06T18:35:28.684Z,24.31
2023-09-06T18:38:15.924Z,24.26
2023-09-06T18:41:01.259Z,24.20
2023-09-06T18:43:47.327Z,24.13
2023-09-06T18:46:32.979Z,24.04
2023-09-06T18:49:18.534Z,23.96
2023-09-06T18:52:08.667Z,23.87
2023-09-06T18:54:54.153Z,23.78
2023-09-06T18:57:51.343Z,23.66
2023-09-06T19:00:44.610Z,23.56
2023-09-06T19:03:30.118Z,23.48
2023-09-06T19:06:15.600Z,23.42
2023-09-06T19:09:01.517Z,23.35
2023-09-06T19:11:46.846Z,23.31
2023-09-06T19:14:32.504Z,23.27
2023-09-06T19:17:18.105Z,23.23
2023-09-06T19:20:06.817Z,23.19
2023-09-06T19:22:54.073Z,23.14
2023-09-06T19:25:44.848Z,23.08
2023-09-06T19:28:30.866Z,23.02
2023-09-06T19:31:16.256Z,22.96
2023-09-06T19:34:01.688Z,22.89
2023-09-06T19:36:47.059Z,22.82
2023-09-06T19:39:33.717Z,22.74
2023-09-06T19:42:19.718Z,22.69
2023-09-06T19:45:05.519Z,22.62
2023-09-06T19:47:51.752Z,22.56
2023-09-06T19:50:37.487Z,22.53
2023-09-06T19:53:23.194Z,22.49
2023-09-06T19:56:14.494Z,22.47
2023-09-06T19:59:00.725Z,22.47
2023-09-06T20:01:48.755Z,22.44
2023-09-06T20:04:35.920Z,22.42
2023-09-06T20:07:21.644Z,22.39
2023-09-06T20:10:09.114Z,22.35
2023-09-06T20:12:54.591Z,22.30
2023-09-06T20:15:39.968Z,22.27
2023-09-06T20:18:25.296Z,22.24
2023-09-06T20:21:10.580Z,22.20
2023-09-06T20:23:55.882Z,22.18
2023-09-06T20:26:42.249Z,22.18
2023-09-06T20:29:29.014Z,22.19
2023-09-06T20:32:14.284Z,22.19
2023-09-06T20:34:59.642Z,22.20
2023-09-06T20:37:45.119Z,22.18
2023-09-06T20:40:30.485Z,22.17
2023-09-06T20:43:15.724Z,22.15
2023-09-06T20:46:01.335Z,22.11
2023-09-06T20:48:47.348Z,22.08
2023-09-06T20:51:32.677Z,22.05
2023-09-06T20:54:18.063Z,22.04
2023-09-06T20:57:04.139Z,22.02
2023-09-06T20:59:50.509Z,21.99
2023-09-06T21:02:37.061Z,21.96
2023-09-06T21:05:22.667Z,21.97
2023-09-06T21:08:08.719Z,21.96
2023-09-06T21:10:54.261Z,21.94
2023-09-06T21:13:39.821Z,21.93
2023-09-06T21:16:25.342Z,21.91
2023-09-06T21:19:10.956Z,21.89
2023-09-06T21:21:56.511Z,21.86
2023-09-06T21:24:42.126Z,21.82
2023-09-06T21:27:27.691Z,21.79
2023-09-06T21:30:13.424Z,21.76
2023-09-06T21:32:59.464Z,21.71
2023-09-06T21:35:46.003Z,21.68
2023-09-06T21:38:31.481Z,21.64
2023-09-06T21:41:17.185Z,21.59
2023-09-06T21:44:03.673Z,21.56
2023-09-06T21:46:49.327Z,21.51
2023-09-06T21:49:34.449Z,21.47
2023-09-06T21:52:19.893Z,21.42
2023-09-06T21:55:05.760Z,21.38
2023-09-06T21:58:03.248Z,21.33
2023-09-06T22:00:57.253Z,21.29
2023-09-06T22:04:01.417Z,21.24
2023-09-06T22:07:05.880Z,21.19
2023-09-06T22:10:10.164Z,21.14
2023-09-06T22:13:14.357Z,21.10
2023-09-06T22:15:59.804Z,21.06
2023-09-06T22:18:45.989Z,21.02
2023-09-06T22:21:31.536Z,20.99
2023-09-06T22:24:16.896Z,20.97
2023-09-06T22:27:02.749Z,20.92
2023-09-06T22:29:49.131Z,20.90
2023-09-06T22:32:34.529Z,20.88
2023-09-06T22:35:19.750Z,20.84
2023-09-06T22:38:05.169Z,20.82
2023-09-06T22:40:50.998Z,20.79
2023-09-06T22:43:36.466Z,20.76
2023-09-06T22:46:22.138Z,20.74
2023-09-06T22:49:08.100Z,20.73
2023-09-06T22:51:53.294Z,20.67
2023-09-06T22:54:40.433Z,20.67
2023-09-06T22:57:25.878Z,20.65
2023-09-06T23:00:12.118Z,20.63
2023-09-06T23:02:57.752Z,20.61
2023-09-06T23:05:43.988Z,20.59
2023-09-06T23:08:29.894Z,20.57
2023-09-06T23:11:17.348Z,20.53
2023-09-06T23:14:06.522Z,20.52
2023-09-06T23:16:52.555Z,20.49
2023-09-06T23:19:45.260Z,20.49
2023-09-06T23:22:33.346Z,20.46
2023-09-06T23:25:22.724Z,20.44
2023-09-06T23:28:22.276Z,20.40
2023-09-06T23:31:11.288Z,20.39
2023-09-06T23:33:58.551Z,20.35
2023-09-06T23:36:44.262Z,20.33
2023-09-06T23:39:29.743Z,20.30
2023-09-06T23:42:17.913Z,20.28
2023-09-06T23:45:05.429Z,20.27
2023-09-06T23:47:55.248Z,20.24
2023-09-06T23:50:40.588Z,20.23
2023-09-06T23:53:26.957Z,20.19
2023-09-06T23:56:12.453Z,20.17
2023-09-06T23:58:57.676Z,20.16
